Time;durP1;ratioP1;P1;durP2;ratioP2;P2;SDS_P1;SDS_P2;PMS_P1;PMS_P2;Temp;Humidity;BMP_temperature;BMP_pressure;BME280_temperature;BME280_humidity;BME280_pressure;Samples;Min_cycle;Max_cycle;Signal;HPM_P1;HPM_P2
2021/11/01 00:01:07;;;;;;;3.55;2.00;;;15.70;99.90;;;;;;5016703;28;20084;-72
2021/11/01 00:03:33;;;;;;;6.05;2.30;;;15.70;99.90;;;;;;5018741;28;20030;-72
2021/11/01 00:05:59;;;;;;;4.82;2.88;;;15.70;99.90;;;;;;5018619;28;20467;-72
2021/11/01 00:08:24;;;;;;;5.35;2.20;;;15.70;99.90;;;;;;5015876;28;20033;-72
2021/11/01 00:10:50;;;;;;;2.50;2.00;;;15.70;99.90;;;;;;4998432;28;20042;-72
2021/11/01 00:13:16;;;;;;;3.50;2.42;;;15.80;99.90;;;;;;5027935;28;20079;-72
2021/11/01 00:15:42;;;;;;;2.70;2.17;;;15.80;99.90;;;;;;5018366;28;20029;-72
2021/11/01 00:18:08;;;;;;;3.47;2.30;;;15.80;99.90;;;;;;5017661;28;20030;-72
2021/11/01 00:20:34;;;;;;;4.57;2.20;;;15.80;99.90;;;;;;4995261;28;20022;-72
2021/11/01 00:23:00;;;;;;;2.75;1.90;;;15.90;99.90;;;;;;5017216;28;20027;-72
2021/11/01 00:25:26;;;;;;;2.88;1.77;;;15.80;99.90;;;;;;5014078;28;20490;-72
2021/11/01 00:27:52;;;;;;;3.97;1.65;;;15.90;99.90;;;;;;4993243;28;20502;-72
2021/11/01 00:30:18;;;;;;;2.38;1.58;;;15.80;99.90;;;;;;5011476;28;20112;-72
2021/11/01 00:32:46;;;;;;;3.65;1.83;;;15.90;99.90;;;;;;5011620;28;20080;-72
2021/11/01 00:35:12;;;;;;;4.07;1.65;;;15.80;99.90;;;;;;4993122;28;20069;-72
2021/11/01 00:37:38;;;;;;;2.60;1.80;;;15.80;99.90;;;;;;5008735;28;20030;-72
2021/11/01 00:40:05;;;;;;;2.28;1.70;;;15.80;99.90;;;;;;4994764;28;20022;-72
2021/11/01 00:42:31;;;;;;;2.33;1.80;;;15.70;99.90;;;;;;5018073;28;20049;-72
2021/11/01 00:44:57;;;;;;;2.88;1.88;;;15.70;99.90;;;;;;5003619;28;20506;-72
2021/11/01 00:47:23;;;;;;;5.13;2.13;;;15.60;99.90;;;;;;5005611;28;20058;-72
2021/11/01 00:49:51;;;;;;;2.22;1.55;;;15.60;99.90;;;;;;4998476;28;20116;-72
2021/11/01 00:52:22;;;;;;;2.60;1.92;;;15.60;99.90;;;;;;5015490;28;20522;-73
2021/11/01 00:54:48;;;;;;;2.75;2.25;;;15.60;99.90;;;;;;5015772;28;20055;-72
2021/11/01 00:57:13;;;;;;;3.50;1.80;;;15.50;99.90;;;;;;5015311;28;20095;-72
2021/11/01 00:59:39;;;;;;;3.25;1.67;;;15.50;99.90;;;;;;5016780;28;20483;-72
2021/11/01 01:02:05;;;;;;;2.80;1.52;;;15.30;99.90;;;;;;5003577;28;20025;-72
2021/11/01 01:04:31;;;;;;;3.00;1.30;;;15.30;99.90;;;;;;5016554;28;20151;-72
2021/11/01 01:06:56;;;;;;;5.85;1.65;;;15.30;99.90;;;;;;5019545;28;20391;-72
2021/11/01 01:09:22;;;;;;;8.63;2.17;;;15.20;99.20;;;;;;5017227;28;20034;-72
2021/11/01 01:11:49;;;;;;;5.82;1.90;;;15.10;98.50;;;;;;5013213;28;20027;-72
2021/11/01 01:14:15;;;;;;;7.50;1.83;;;15.00;98.60;;;;;;5012213;28;20744;-72
2021/11/01 01:16:45;;;;;;;6.50;1.50;;;15.00;98.50;;;;;;5019678;28;20954;-72
2021/11/01 01:19:20;;;;;;;4.93;1.58;;;14.90;97.60;;;;;;5009985;28;20030;-72
2021/11/01 01:24:30;;;;;;;10.25;1.65;;;14.90;98.10;;;;;;5014872;28;20045;-72
2021/11/01 01:26:56;;;;;;;8.38;2.10;;;14.80;98.30;;;;;;5016591;28;20480;-72
2021/11/01 01:29:22;;;;;;;9.43;2.13;;;14.80;98.10;;;;;;5014820;28;20049;-72
2021/11/01 01:31:48;;;;;;;12.55;2.15;;;14.70;98.60;;;;;;5016581;28;20025;-72
2021/11/01 01:34:13;;;;;;;8.93;2.05;;;14.70;98.90;;;;;;5000356;28;20037;-71
2021/11/01 01:36:39;;;;;;;10.88;2.22;;;14.60;99.00;;;;;;5016053;28;20115;-72
2021/11/01 01:39:05;;;;;;;9.32;1.77;;;14.60;99.00;;;;;;5010458;28;20030;-72
2021/11/01 01:41:30;;;;;;;11.35;2.40;;;14.50;99.30;;;;;;5011219;28;20029;-72
2021/11/01 01:44:01;;;;;;;11.82;2.35;;;14.50;99.20;;;;;;5014964;28;20026;-72
2021/11/01 01:46:29;;;;;;;16.65;2.78;;;14.40;99.50;;;;;;5016162;28;20030;-72
2021/11/01 01:48:56;;;;;;;14.70;2.60;;;14.30;99.50;;;;;;5000314;28;20531;-72
2021/11/01 01:51:26;;;;;;;14.43;2.85;;;14.20;99.80;;;;;;5014852;28;20046;-72
2021/11/01 01:53:51;;;;;;;11.23;2.65;;;14.20;99.90;;;;;;5017149;28;20445;-72
2021/11/01 01:56:18;;;;;;;14.43;3.20;;;14.10;99.90;;;;;;5018412;28;20029;-72
2021/11/01 01:58:46;;;;;;;9.00;2.20;;;14.10;99.90;;;;;;4995799;28;20030;-72
2021/11/01 02:01:15;;;;;;;16.80;3.00;;;14.20;99.90;;;;;;5013186;28;20038;-72
2021/11/01 02:03:45;;;;;;;13.30;2.72;;;14.10;99.90;;;;;;5000383;28;20155;-72
2021/11/01 02:06:16;;;;;;;13.52;2.50;;;14.10;99.90;;;;;;5016543;28;20037;-72
2021/11/01 02:09:00;;;;;;;11.63;2.53;;;14.10;99.90;;;;;;5016540;28;20040;-72
2021/11/01 02:11:44;;;;;;;10.40;2.78;;;14.10;99.90;;;;;;5016259;28;20160;-72
2021/11/01 02:14:12;;;;;;;10.48;2.40;;;14.10;99.90;;;;;;5016095;28;20040;-72
2021/11/01 02:16:41;;;;;;;12.85;2.67;;;14.00;99.90;;;;;;5016835;28;20423;-72
2021/11/01 02:19:10;;;;;;;15.05;2.67;;;14.00;99.90;;;;;;5016579;28;20105;-72
2021/11/01 02:22:07;;;;;;;11.88;2.00;;;14.00;99.90;;;;;;5015876;28;20032;-72
2021/11/01 02:25:02;;;;;;;11.93;2.20;;;14.00;99.90;;;;;;5016621;28;20479;-71
2021/11/01 02:27:30;;;;;;;8.35;2.08;;;13.90;99.90;;;;;;5009417;28;20494;-72
2021/11/01 02:29:57;;;;;;;12.65;2.22;;;13.80;99.90;;;;;;5016855;28;20089;-72
2021/11/01 02:32:24;;;;;;;16.40;2.72;;;13.80;99.90;;;;;;5012728;28;20095;-72
2021/11/01 02:34:50;;;;;;;9.68;2.20;;;13.80;99.90;;;;;;5005872;28;20030;-72
2021/11/01 02:37:16;;;;;;;14.10;2.47;;;13.80;99.90;;;;;;5019735;28;20030;-72
2021/11/01 02:39:51;;;;;;;10.88;2.33;;;13.80;99.90;;;;;;5013240;28;20034;-71
2021/11/01 02:42:18;;;;;;;13.85;2.63;;;13.80;99.90;;;;;;4991354;28;20034;-72
2021/11/01 02:44:54;;;;;;;11.80;2.35;;;13.70;99.90;;;;;;5021009;28;20093;-72
2021/11/01 02:47:20;;;;;;;8.65;1.55;;;13.70;99.90;;;;;;5004103;28;20029;-72
2021/11/01 02:49:46;;;;;;;10.02;2.20;;;13.70;99.90;;;;;;5014675;28;20502;-72
2021/11/01 02:52:12;;;;;;;9.60;1.63;;;13.70;99.90;;;;;;5013291;28;20114;-71
2021/11/01 02:54:38;;;;;;;6.65;1.60;;;13.70;99.90;;;;;;5013065;28;20037;-73
2021/11/01 02:57:04;;;;;;;14.02;2.30;;;13.70;99.90;;;;;;5012223;28;20034;-72
2021/11/01 02:59:30;;;;;;;8.32;1.77;;;13.70;99.90;;;;;;4995917;28;20018;-72
2021/11/01 03:01:58;;;;;;;17.33;2.17;;;13.70;99.90;;;;;;5017920;28;20032;-72
2021/11/01 03:04:25;;;;;;;10.73;2.47;;;13.60;99.90;;;;;;5014385;28;20042;-72
2021/11/01 03:06:51;;;;;;;12.85;2.45;;;13.50;99.90;;;;;;5019877;28;20053;-72
2021/11/01 03:09:17;;;;;;;14.38;2.22;;;13.50;99.90;;;;;;5020005;28;20030;-72
2021/11/01 03:11:43;;;;;;;14.90;2.65;;;13.40;99.90;;;;;;5019943;28;20037;-72
2021/11/01 03:14:13;;;;;;;11.35;2.28;;;13.40;99.90;;;;;;5018455;28;20657;-72
2021/11/01 03:16:39;;;;;;;14.27;2.45;;;13.40;99.90;;;;;;5016245;28;20056;-71
2021/11/01 03:19:18;;;;;;;14.20;3.03;;;13.30;99.90;;;;;;5010265;28;20030;-72
2021/11/01 03:21:45;;;;;;;8.57;1.60;;;13.30;99.90;;;;;;4998391;28;20034;-72
2021/11/01 03:24:13;;;;;;;9.70;2.45;;;13.30;99.90;;;;;;5011867;28;20053;-72
2021/11/01 03:26:40;;;;;;;15.18;2.13;;;13.20;99.90;;;;;;5020981;28;20033;-72
2021/11/01 03:29:10;;;;;;;11.70;2.85;;;13.20;99.90;;;;;;5005747;28;20030;-72
2021/11/01 03:31:38;;;;;;;14.10;2.38;;;13.20;99.90;;;;;;5020675;28;20113;-71
2021/11/01 03:34:05;;;;;;;11.73;2.72;;;13.10;99.90;;;;;;5002907;28;20037;-72
2021/11/01 03:36:34;;;;;;;12.90;2.38;;;13.10;99.90;;;;;;5009548;28;20030;-72
2021/11/01 03:39:22;;;;;;;18.95;3.40;;;13.00;99.90;;;;;;5015269;28;20064;-72
2021/11/01 03:41:49;;;;;;;11.60;2.55;;;13.00;99.90;;;;;;5017691;28;20033;-71
2021/11/01 03:44:22;;;;;;;14.68;2.35;;;13.00;99.90;;;;;;5017086;28;20029;-71
2021/11/01 03:46:56;;;;;;;18.75;2.47;;;12.90;99.90;;;;;;5003741;28;20036;-71
2021/11/01 03:49:24;;;;;;;13.57;2.70;;;12.90;99.90;;;;;;5019103;28;20343;-71
2021/11/01 03:54:25;;;;;;;17.77;2.90;;;12.80;99.90;;;;;;5019281;28;20021;-71
2021/11/01 03:56:52;;;;;;;11.77;2.05;;;12.90;99.90;;;;;;5019282;28;20033;-71
2021/11/01 03:59:18;;;;;;;14.80;2.65;;;12.90;99.90;;;;;;5018588;28;20452;-72
2021/11/01 04:01:45;;;;;;;12.80;2.42;;;12.90;99.90;;;;;;5017401;28;20033;-72
2021/11/01 04:04:12;;;;;;;14.80;2.80;;;12.80;99.90;;;;;;5014633;28;20531;-71
2021/11/01 04:06:40;;;;;;;12.30;2.80;;;12.80;99.90;;;;;;5015345;28;20147;-72
2021/11/01 04:09:11;;;;;;;13.13;2.38;;;12.80;99.90;;;;;;5017855;28;20541;-71
2021/11/01 04:11:42;;;;;;;16.83;3.28;;;12.70;99.90;;;;;;5016808;28;20152;-71
2021/11/01 04:14:16;;;;;;;16.40;3.30;;;12.80;99.90;;;;;;5015593;28;20113;-72
2021/11/01 04:16:44;;;;;;;17.17;3.42;;;12.80;99.90;;;;;;5016746;28;20030;-71
2021/11/01 04:21:43;;;;;;;13.63;3.17;;;12.70;99.90;;;;;;5018397;28;20119;-71
2021/11/01 04:24:10;;;;;;;17.95;3.58;;;12.70;99.90;;;;;;5002303;28;20026;-72
2021/11/01 04:26:36;;;;;;;13.68;2.75;;;12.70;99.90;;;;;;5017440;28;20026;-72
2021/11/01 04:29:06;;;;;;;12.82;2.35;;;12.70;99.90;;;;;;5013339;28;20030;-72
2021/11/01 04:31:35;;;;;;;10.75;2.40;;;12.80;99.90;;;;;;5011299;28;20109;-72
2021/11/01 04:34:12;;;;;;;16.33;2.72;;;12.70;99.90;;;;;;5016079;28;20137;-72
2021/11/01 04:36:39;;;;;;;14.18;2.47;;;12.70;99.90;;;;;;4996666;28;20432;-72
2021/11/01 04:39:28;;;;;;;16.73;2.63;;;12.70;99.90;;;;;;5015828;28;20447;-71
2021/11/01 04:55:19;;;;;;;17.15;3.00;;;12.60;99.90;;;;;;5018186;28;20188;-74
2021/11/01 04:57:45;;;;;;;17.63;2.55;;;12.60;99.90;;;;;;4998402;28;20477;-74
2021/11/01 05:00:12;;;;;;;15.68;3.03;;;12.50;99.90;;;;;;5015751;28;20373;-71
2021/11/01 05:02:42;;;;;;;10.13;2.58;;;12.40;99.90;;;;;;5017779;28;20025;-71
2021/11/01 05:05:09;;;;;;;13.13;2.97;;;12.40;99.90;;;;;;5017640;28;20058;-71
2021/11/01 05:07:34;;;;;;;15.55;3.63;;;12.40;99.90;;;;;;5017337;28;20033;-72
2021/11/01 05:10:04;;;;;;;14.77;3.25;;;12.30;99.90;;;;;;5000405;28;20115;-71
2021/11/01 05:12:35;;;;;;;18.58;3.30;;;12.40;99.90;;;;;;5016411;28;20431;-70
2021/11/01 05:27:59;;;;;;;13.50;3.63;;;12.30;99.90;;;;;;5016943;28;20032;-73
2021/11/01 05:30:38;;;;;;;13.25;3.13;;;12.20;99.90;;;;;;5014092;28;20171;-73
2021/11/01 05:33:18;;;;;;;17.63;3.42;;;12.30;99.90;;;;;;5015098;28;20040;-73
2021/11/01 05:35:44;;;;;;;20.13;3.83;;;12.30;99.90;;;;;;5016724;28;20152;-73
2021/11/01 05:38:09;;;;;;;13.05;2.67;;;12.20;99.90;;;;;;5010768;28;20132;-72
2021/11/01 05:40:35;;;;;;;22.08;3.90;;;12.30;99.90;;;;;;5010861;28;20029;-72
2021/11/01 05:43:02;;;;;;;13.13;3.47;;;12.30;99.90;;;;;;5012337;28;20036;-73
2021/11/01 05:45:28;;;;;;;17.40;3.22;;;12.20;99.90;;;;;;5011036;28;20804;-73
2021/11/01 05:47:59;;;;;;;20.15;3.97;;;12.20;99.90;;;;;;5013424;28;20029;-72
2021/11/01 05:50:30;;;;;;;12.23;3.17;;;12.20;99.90;;;;;;5010693;28;20032;-72
2021/11/01 05:52:58;;;;;;;15.63;3.30;;;12.20;99.90;;;;;;5010682;28;20034;-73
2021/11/01 05:55:50;;;;;;;13.57;3.78;;;12.20;99.90;;;;;;5010151;28;20038;-72
2021/11/01 06:03:28;;;;;;;18.55;3.33;;;12.20;99.90;;;;;;5004355;28;20076;-73
2021/11/01 06:06:17;;;;;;;14.80;2.80;;;12.20;99.90;;;;;;5010911;28;20053;-73
2021/11/01 06:14:11;;;;;;;16.85;3.67;;;12.20;99.90;;;;;;5014128;28;20036;-72
2021/11/01 06:16:37;;;;;;;15.40;3.10;;;12.20;99.90;;;;;;5014121;28;20030;-72
2021/11/01 06:19:03;;;;;;;21.85;4.03;;;12.20;99.90;;;;;;4994564;28;20022;-72
2021/11/01 06:21:28;;;;;;;16.95;4.45;;;12.20;99.90;;;;;;5015927;28;20029;-72
2021/11/01 06:23:55;;;;;;;12.88;3.65;;;12.20;99.90;;;;;;5009681;28;20022;-73
2021/11/01 06:26:23;;;;;;;8.65;3.20;;;12.20;99.90;;;;;;5010920;28;20034;-73
2021/11/01 06:28:54;;;;;;;12.70;3.60;;;12.20;99.90;;;;;;5006546;28;20026;-73
2021/11/01 06:31:34;;;;;;;16.35;4.00;;;12.20;99.90;;;;;;5007026;28;20167;-74
2021/11/01 06:34:21;;;;;;;17.10;4.10;;;12.20;99.90;;;;;;5010234;28;20548;-76
2021/11/01 06:39:54;;;;;;;11.60;3.88;;;12.20;99.90;;;;;;5011035;28;20316;-73
2021/11/01 06:42:26;;;;;;;17.92;4.50;;;12.20;99.90;;;;;;5014618;28;20028;-72
2021/11/01 06:50:38;;;;;;;11.80;3.33;;;12.20;99.90;;;;;;5016763;28;20082;-71
2021/11/01 06:53:29;;;;;;;15.13;3.80;;;12.20;99.90;;;;;;5020549;28;20026;-70
2021/11/01 06:58:48;;;;;;;17.00;3.78;;;12.20;99.90;;;;;;5006128;28;20133;-72
2021/11/01 07:15:10;;;;;;;17.25;3.88;;;12.20;99.90;;;;;;5017867;28;20033;-73
2021/11/01 07:17:46;;;;;;;17.50;4.03;;;12.10;99.90;;;;;;5020237;28;20480;-75
2021/11/01 07:20:28;;;;;;;19.05;3.92;;;12.10;99.90;;;;;;5013430;28;20230;-75
2021/11/01 08:26:09;;;;;;;8.65;2.05;;;12.40;99.90;;;;;;5017511;28;20036;-71
2021/11/01 08:47:39;;;;;;;12.32;2.00;;;12.50;99.90;;;;;;5019191;28;20479;-72
2021/11/01 09:06:50;;;;;;;11.80;2.15;;;12.50;99.90;;;;;;4976045;28;20032;-71
2021/11/01 09:20:19;;;;;;;10.00;1.90;;;12.70;98.70;;;;;;4993204;28;20058;-72
2021/11/01 09:28:11;;;;;;;10.02;2.33;;;12.70;98.70;;;;;;4994130;28;20581;-72
2021/11/01 09:36:20;;;;;;;6.97;1.98;;;12.70;98.40;;;;;;4990995;28;20045;-72
2021/11/01 09:41:26;;;;;;;9.27;1.90;;;12.80;98.40;;;;;;4991339;28;20887;-72
2021/11/01 09:43:54;;;;;;;8.77;1.98;;;12.80;97.70;;;;;;4999156;28;20030;-72
2021/11/01 09:46:22;;;;;;;7.32;1.50;;;12.70;97.90;;;;;;4999849;28;20037;-72
2021/11/01 09:48:52;;;;;;;5.88;2.13;;;12.70;98.20;;;;;;4998086;28;20030;-71
2021/11/01 09:51:18;;;;;;;16.97;2.43;;;12.70;98.20;;;;;;4999085;28;20021;-72
2021/11/01 09:53:46;;;;;;;20.13;2.92;;;12.60;98.30;;;;;;5015241;28;20022;-72
2021/11/01 09:56:22;;;;;;;7.55;1.95;;;12.60;98.10;;;;;;5013949;28;20113;-71
2021/11/01 10:01:52;;;;;;;10.93;1.95;;;12.60;98.30;;;;;;4992842;28;20042;-71
2021/11/01 10:04:29;;;;;;;11.02;2.03;;;12.70;98.20;;;;;;5017327;28;20029;-72
2021/11/01 10:07:53;;;;;;;6.97;2.15;;;12.70;98.10;;;;;;5015329;28;20495;-71
2021/11/01 10:09:57;;;;;;;6.85;1.77;;;12.90;98.00;;;;;;5004689;28;20037;-71
2021/11/01 10:12:31;;;;;;;7.05;1.75;;;13.10;97.60;;;;;;5015541;28;20030;-70
2021/11/01 10:18:21;;;;;;;14.10;2.05;;;13.30;96.60;;;;;;5014238;28;20042;-73
2021/11/01 10:20:52;;;;;;;8.45;1.73;;;13.30;96.40;;;;;;4982203;28;20038;-71
2021/11/01 10:23:26;;;;;;;8.15;1.80;;;13.40;96.60;;;;;;5022003;28;20141;-71
2021/11/01 10:26:03;;;;;;;11.57;1.92;;;13.50;96.00;;;;;;5004555;28;20042;-73
2021/11/01 10:28:30;;;;;;;10.10;2.03;;;13.50;95.40;;;;;;5021487;28;20034;-76
2021/11/01 10:31:10;;;;;;;12.07;1.98;;;13.60;95.00;;;;;;5017634;28;20053;-71
2021/11/01 10:33:46;;;;;;;10.95;2.28;;;13.60;94.60;;;;;;5021955;28;20106;-73
2021/11/01 10:36:37;;;;;;;9.75;2.25;;;13.60;94.70;;;;;;5022346;28;20511;-74
2021/11/01 10:39:11;;;;;;;;;;;13.70;94.40;;;;;;5020928;28;20022;-71
2021/11/01 10:44:55;;;;;;;6.72;1.85;;;14.10;93.80;;;;;;5004935;28;20030;-71
2021/11/01 10:56:44;;;;;;;7.83;1.70;;;14.30;93.00;;;;;;5008985;28;20030;-72
2021/11/01 11:13:13;;;;;;;12.52;2.15;;;14.10;92.80;;;;;;5014477;28;20034;-76
2021/11/01 11:15:40;;;;;;;6.65;2.03;;;14.20;92.10;;;;;;5001514;28;20068;-75
2021/11/01 11:21:16;;;;;;;9.35;1.85;;;14.30;91.50;;;;;;5020614;28;20026;-74
2021/11/01 11:32:05;;;;;;;7.55;1.58;;;14.00;91.50;;;;;;5008923;28;20022;-72
2021/11/01 11:37:35;;;;;;;5.55;1.45;;;14.10;91.60;;;;;;5015306;28;20034;-71
2021/11/01 11:42:52;;;;;;;8.52;1.48;;;14.10;91.50;;;;;;5018327;28;20021;-72
2021/11/01 11:48:18;;;;;;;5.82;1.60;;;14.10;91.40;;;;;;5016322;28;20084;-71
2021/11/01 11:50:45;;;;;;;5.93;1.17;;;14.20;91.30;;;;;;5010261;28;20036;-72
2021/11/01 11:53:16;;;;;;;5.43;1.27;;;14.20;91.80;;;;;;5008717;28;20033;-72
2021/11/01 11:55:44;;;;;;;8.07;2.17;;;14.20;91.40;;;;;;5009729;28;20041;-72
2021/11/01 11:58:12;;;;;;;8.27;1.90;;;14.30;90.70;;;;;;5008201;28;20045;-72
2021/11/01 12:00:39;;;;;;;7.72;1.77;;;14.20;90.40;;;;;;5013353;28;20089;-71
2021/11/01 12:03:17;;;;;;;6.28;1.90;;;14.10;91.10;;;;;;5014957;28;20511;-70
2021/11/01 12:05:56;;;;;;;6.85;1.70;;;14.20;91.40;;;;;;5016561;28;20094;-72
2021/11/01 12:19:46;;;;;;;5.47;1.77;;;14.50;90.30;;;;;;4993229;28;20511;-72
2021/11/01 12:22:26;;;;;;;5.15;1.70;;;14.40;90.10;;;;;;5019002;28;20034;-71
2021/11/01 12:24:56;;;;;;;10.82;2.35;;;14.40;90.30;;;;;;4999912;28;20033;-73
2021/11/01 12:27:22;;;;;;;6.32;1.63;;;14.30;90.30;;;;;;5021984;28;20093;-71
2021/11/01 12:29:49;;;;;;;9.55;1.80;;;14.30;90.80;;;;;;5016953;28;20088;-70
2021/11/01 12:32:15;;;;;;;5.88;1.60;;;14.40;90.90;;;;;;5016494;28;20041;-70
2021/11/01 12:35:06;;;;;;;6.60;1.40;;;14.30;90.80;;;;;;5017865;28;20033;-73
2021/11/01 12:37:37;;;;;;;5.88;2.10;;;14.20;90.90;;;;;;4998727;28;20030;-71
2021/11/01 12:48:49;;;;;;;4.85;1.75;;;14.00;90.80;;;;;;5017736;28;20459;-73
2021/11/01 12:59:49;;;;;;;5.45;1.90;;;13.70;91.40;;;;;;5015693;28;20041;-72
2021/11/01 13:02:30;;;;;;;8.95;2.28;;;13.70;90.90;;;;;;5017261;28;20017;-73
2021/11/01 13:05:01;;;;;;;4.93;1.77;;;13.60;90.90;;;;;;5006359;28;20028;-72
2021/11/01 13:18:09;;;;;;;5.97;1.73;;;13.60;90.80;;;;;;5014425;28;20030;-72
2021/11/01 13:20:38;;;;;;;78.15;38.53;;;13.60;91.40;;;;;;5008276;28;20058;-72
2021/11/01 13:23:05;;;;;;;148.82;84.03;;;13.60;91.50;;;;;;5008573;28;20206;-73
2021/11/01 13:38:50;;;;;;;6.93;2.35;;;13.50;92.10;;;;;;4991525;28;20083;-73
2021/11/01 13:41:29;;;;;;;11.38;2.10;;;13.40;92.00;;;;;;4996777;28;20080;-72
2021/11/01 13:44:11;;;;;;;7.70;2.40;;;13.40;92.00;;;;;;4990729;28;20021;-72
2021/11/01 13:46:52;;;;;;;6.15;2.03;;;13.40;91.60;;;;;;5012759;28;20040;-72
2021/11/01 13:49:20;;;;;;;7.50;2.25;;;13.50;91.60;;;;;;5009262;28;20026;-72
2021/11/01 13:51:48;;;;;;;6.25;1.90;;;13.50;91.40;;;;;;5013312;28;20369;-72
2021/11/01 13:56:49;;;;;;;8.27;2.38;;;13.40;91.90;;;;;;5016753;28;20401;-72
2021/11/01 13:59:45;;;;;;;7.07;2.08;;;13.40;91.80;;;;;;5012694;28;20041;-72
2021/11/01 14:13:52;;;;;;;3.65;2.03;;;13.60;92.40;;;;;;4967225;28;20034;-72
2021/11/01 14:16:25;;;;;;;4.68;2.30;;;13.60;92.10;;;;;;4967251;28;20110;-73
2021/11/01 14:27:37;;;;;;;5.82;1.98;;;13.50;92.20;;;;;;5009835;28;20484;-73
2021/11/01 14:33:11;;;;;;;8.05;2.15;;;13.40;92.20;;;;;;5001073;28;20040;-73
2021/11/01 15:03:32;;;;;;;4.47;2.35;;;12.90;92.80;;;;;;5014419;28;20029;-73
2021/11/01 15:16:08;;;;;;;4.95;2.13;;;12.90;92.80;;;;;;5018716;28;20442;-73
2021/11/01 16:18:01;;;;;;;6.82;2.05;;;12.30;94.10;;;;;;5010052;28;20500;-73
2021/11/01 16:20:27;;;;;;;8.77;2.03;;;12.30;93.90;;;;;;5000195;28;20040;-74
2021/11/01 16:23:05;;;;;;;5.13;1.95;;;12.20;94.10;;;;;;4997186;28;20017;-73
2021/11/01 16:25:32;;;;;;;4.50;2.50;;;12.20;93.90;;;;;;4993810;28;20022;-71
2021/11/01 16:27:57;;;;;;;10.95;2.28;;;12.20;94.20;;;;;;5015244;28;20064;-72
2021/11/01 16:30:29;;;;;;;4.97;1.92;;;12.20;94.20;;;;;;5010302;28;20838;-72
2021/11/01 16:33:04;;;;;;;6.57;1.90;;;12.20;94.20;;;;;;5015248;28;20100;-73
2021/11/01 16:35:43;;;;;;;9.85;2.58;;;12.20;95.00;;;;;;5013110;28;20128;-72
2021/11/01 16:38:24;;;;;;;7.03;2.00;;;12.40;94.70;;;;;;5010784;28;20079;-72
2021/11/01 16:40:51;;;;;;;6.32;2.05;;;12.50;94.20;;;;;;5003697;28;20026;-72
2021/11/01 16:43:19;;;;;;;8.63;2.30;;;12.50;93.70;;;;;;5010548;28;20026;-72
2021/11/01 16:45:47;;;;;;;5.85;2.00;;;12.40;94.00;;;;;;4978886;28;20029;-72
2021/11/01 16:48:13;;;;;;;7.35;2.03;;;12.30;94.20;;;;;;5009394;28;20112;-73
2021/11/01 16:50:39;;;;;;;7.07;2.20;;;12.30;94.30;;;;;;5013041;28;20496;-72
2021/11/01 16:53:07;;;;;;;5.25;2.10;;;12.30;94.30;;;;;;5013558;28;20034;-74
2021/11/01 16:55:40;;;;;;;3.20;1.80;;;12.20;94.50;;;;;;5012621;28;20103;-72
2021/11/01 16:58:26;;;;;;;8.25;1.95;;;12.20;94.50;;;;;;5020247;28;20908;-72
2021/11/01 17:01:02;;;;;;;6.55;2.40;;;12.20;94.60;;;;;;5009810;28;20033;-72
2021/11/01 17:03:46;;;;;;;6.55;2.28;;;12.10;94.70;;;;;;5012083;28;20024;-72
2021/11/01 17:22:35;;;;;;;6.13;2.30;;;12.00;95.00;;;;;;4993028;28;20042;-72
2021/11/01 17:25:09;;;;;;;10.27;2.40;;;12.00;95.30;;;;;;4999068;28;20410;-71
2021/11/01 17:36:38;;;;;;;5.30;1.83;;;11.90;94.90;;;;;;5020166;28;20099;-73
2021/11/01 18:40:21;;;;;;;10.93;3.35;;;11.40;96.90;;;;;;5013894;28;20506;-71
2021/11/01 18:51:25;;;;;;;10.95;4.55;;;11.30;97.40;;;;;;5013133;28;20033;-71
2021/11/01 18:53:59;;;;;;;9.60;4.53;;;11.30;97.50;;;;;;4975676;28;20023;-70
2021/11/01 18:56:34;;;;;;;12.63;4.65;;;11.20;97.70;;;;;;5018934;28;20052;-70
2021/11/01 18:59:03;;;;;;;10.82;4.28;;;11.20;97.60;;;;;;5015962;28;20033;-72
2021/11/01 19:01:33;;;;;;;13.70;4.53;;;11.20;97.60;;;;;;5006739;28;20017;-72
2021/11/01 19:04:04;;;;;;;10.95;4.15;;;11.20;97.80;;;;;;5015317;28;20024;-70
2021/11/01 19:06:51;;;;;;;10.38;3.55;;;11.10;97.70;;;;;;5022467;28;20450;-71
2021/11/01 20:14:45;;;;;;;8.65;3.72;;;10.70;98.90;;;;;;5013743;28;20065;-71
2021/11/01 21:26:59;;;;;;;6.75;3.30;;;10.30;99.60;;;;;;5016989;28;20080;-71
2021/11/01 21:29:26;;;;;;;7.38;3.10;;;10.30;99.70;;;;;;5012476;28;20033;-71
2021/11/01 21:31:52;;;;;;;9.30;3.50;;;10.20;99.80;;;;;;5016090;28;20037;-72
2021/11/01 21:34:27;;;;;;;9.18;3.15;;;10.20;99.90;;;;;;5018137;28;20030;-71
2021/11/01 21:36:57;;;;;;;6.60;2.90;;;10.20;99.90;;;;;;5017398;28;20089;-71
2021/11/01 21:39:22;;;;;;;6.78;3.20;;;10.10;99.90;;;;;;5013687;28;20488;-71
2021/11/01 21:41:48;;;;;;;8.80;3.00;;;10.20;99.90;;;;;;5013723;28;20120;-72
2021/11/01 21:44:14;;;;;;;8.43;4.32;;;10.10;99.90;;;;;;5018704;28;20028;-72
2021/11/01 21:46:40;;;;;;;9.10;3.65;;;10.00;99.90;;;;;;5014277;28;20030;-72
2021/11/01 21:49:05;;;;;;;12.40;3.65;;;10.10;99.90;;;;;;5016134;28;20120;-74
2021/11/01 21:51:37;;;;;;;7.10;2.97;;;10.10;99.90;;;;;;5016524;28;20026;-72
2021/11/01 21:56:53;;;;;;;13.10;3.08;;;10.10;99.90;;;;;;5015472;28;20032;-71
2021/11/01 21:59:47;;;;;;;;;;;10.00;99.90;;;;;;4999102;28;20038;-72
2021/11/01 22:21:23;;;;;;;6.93;2.67;;;10.00;99.90;;;;;;5021207;28;20053;-72
2021/11/01 22:24:02;;;;;;;5.38;2.70;;;10.00;99.90;;;;;;5020644;28;20100;-73
2021/11/01 22:26:47;;;;;;;7.95;2.85;;;10.00;99.90;;;;;;5020364;28;20026;-71
2021/11/01 22:33:05;;;;;;;7.45;2.50;;;10.00;99.90;;;;;;5020079;28;21446;-72
2021/11/01 22:40:52;;;;;;;138.10;70.57;;;9.90;99.90;;;;;;5016560;28;20022;-72
2021/11/01 22:43:07;;;;;;;330.30;189.60;;;9.90;99.90;;;;;;5015266;28;20034;-71
2021/11/01 22:45:46;;;;;;;52.78;31.58;;;9.90;99.90;;;;;;5004800;28;20025;-72
2021/11/01 22:56:33;;;;;;;8.25;2.63;;;9.80;99.90;;;;;;5013335;28;20751;-71
2021/11/01 22:59:00;;;;;;;6.63;2.63;;;9.80;99.90;;;;;;4989755;28;20030;-71
2021/11/01 23:01:27;;;;;;;10.27;2.35;;;9.80;99.90;;;;;;5022663;28;20026;-72
2021/11/01 23:33:29;;;;;;;7.95;2.65;;;9.50;99.90;;;;;;5003304;28;20109;-71
2021/11/01 23:35:55;;;;;;;8.32;2.35;;;9.50;99.90;;;;;;5015205;28;20432;-72
2021/11/01 23:38:21;;;;;;;8.18;3.17;;;9.40;99.90;;;;;;5006445;28;20133;-71
2021/11/01 23:40:48;;;;;;;10.07;2.67;;;9.40;99.90;;;;;;5018546;28;20082;-71
2021/11/01 23:43:14;;;;;;;6.15;2.53;;;9.40;99.90;;;;;;5016392;28;20113;-71
2021/11/01 23:45:45;;;;;;;5.95;2.75;;;9.50;99.90;;;;;;5007593;28;20100;-72
2021/11/01 23:48:12;;;;;;;8.75;2.60;;;9.50;99.90;;;;;;5005224;28;20113;-72
2021/11/01 23:50:38;;;;;;;8.95;2.40;;;9.50;99.90;;;;;;5019114;28;20030;-72
2021/11/01 23:55:51;;;;;;;7.85;3.40;;;9.50;99.90;;;;;;4984042;28;20030;-71
2021/11/01 23:58:17;;;;;;;9.48;3.45;;;9.50;99.90;;;;;;5014489;28;20088;-71
